Time,TemperatureF,DewpointF,PressureIn,WindDirection,WindDirectionDegrees,WindSpeedMPH,WindSpeedGustMPH,Humidity,HourlyPrecipIn,Conditions,Clouds,dailyrainin,SoftwareType,DateUTC
2013-09-26 00:01:00,58.1,49.5,29.98,North,0,0.0,0.0,73,0.00,,,0.00,pywws,2013-09-26 04:01:00,
2013-09-26 00:02:00,58.1,49.5,29.98,North,0,0.0,0.0,73,0.00,,,0.00,pywws,2013-09-26 04:02:00,
2013-09-26 00:08:00,57.9,50.4,29.98,North,0,0.0,0.7,76,0.00,,,0.00,pywws,2013-09-26 04:08:00,
2013-09-26 00:10:00,57.7,50.2,29.98,West,270,0.0,0.0,76,0.00,,,0.00,pywws,2013-09-26 04:10:00,
2013-09-26 00:16:00,57.9,50.8,29.98,South,180,0.0,0.0,77,0.00,,,0.00,pywws,2013-09-26 04:16:00,
2013-09-26 00:21:00,57.9,51.4,29.98,East,90,0.0,0.0,79,0.00,,,0.00,pywws,2013-09-26 04:21:00,
2013-09-26 00:27:00,57.7,51.6,29.98,West,270,0.0,0.0,80,0.00,,,0.00,pywws,2013-09-26 04:27:00,
2013-09-26 00:32:00,57.6,52.1,29.98,South,180,1.6,3.1,82,0.00,,,0.00,pywws,2013-09-26 04:32:00,
2013-09-26 00:37:00,57.6,52.8,29.98,West,270,0.0,0.0,84,0.00,,,0.00,pywws,2013-09-26 04:37:00,
2013-09-26 00:42:00,57.6,53.1,29.98,North,0,0.0,0.0,85,0.00,,,0.00,pywws,2013-09-26 04:42:00,
2013-09-26 00:48:00,57.2,52.7,29.98,North,0,0.0,2.2,85,0.00,,,0.00,pywws,2013-09-26 04:48:00,
2013-09-26 00:53:00,57.4,53.2,29.98,South,180,0.0,0.7,86,0.00,,,0.00,pywws,2013-09-26 04:53:00,
2013-09-26 00:59:00,57.6,53.4,29.98,West,270,0.0,0.0,86,0.00,,,0.00,pywws,2013-09-26 04:59:00,
2013-09-26 01:05:00,57.6,53.7,29.98,North,0,0.0,0.0,87,0.00,,,0.00,pywws,2013-09-26 05:05:00,
2013-09-26 01:10:00,57.2,53.4,29.98,West,270,0.0,0.0,87,0.00,,,0.00,pywws,2013-09-26 05:10:00,
2013-09-26 01:16:00,57.0,53.5,29.98,East,90,0.7,2.2,88,0.00,,,0.00,pywws,2013-09-26 05:16:00,
2013-09-26 01:21:00,57.0,53.8,29.98,North,0,0.0,0.0,89,0.00,,,0.00,pywws,2013-09-26 05:21:00,
2013-09-26 01:27:00,56.8,53.9,29.98,North,0,0.0,0.7,90,0.00,,,0.00,pywws,2013-09-26 05:27:00,
2013-09-26 01:32:00,56.8,53.9,29.98,North,0,0.0,0.0,90,0.00,,,0.00,pywws,2013-09-26 05:32:00,
2013-09-26 01:37:00,56.8,54.2,29.98,South,180,0.0,0.0,91,0.00,,,0.00,pywws,2013-09-26 05:37:00,
2013-09-26 01:43:00,57.4,54.5,29.98,East,90,0.0,0.0,90,0.00,,,0.00,pywws,2013-09-26 05:43:00,
2013-09-26 01:49:00,57.4,54.2,29.98,East,90,0.0,0.0,89,0.00,,,0.00,pywws,2013-09-26 05:49:00,
2013-09-26 01:54:00,57.6,54.3,29.98,North,0,0.0,0.0,89,0.00,,,0.00,pywws,2013-09-26 05:54:00,
2013-09-26 02:00:00,57.6,54.0,29.98,South,180,0.0,0.0,88,0.00,,,0.00,pywws,2013-09-26 06:00:00,
2013-09-26 02:05:00,57.6,54.0,29.98,South,180,0.0,0.0,88,0.00,,,0.00,pywws,2013-09-26 06:05:00,
2013-09-26 02:11:00,57.2,53.4,29.98,South,180,0.0,0.0,87,0.00,,,0.00,pywws,2013-09-26 06:11:00,
2013-09-26 02:17:00,56.8,53.3,29.98,South,180,0.0,0.0,88,0.00,,,0.00,pywws,2013-09-26 06:17:00,
2013-09-26 02:22:00,56.7,53.5,29.98,North,0,0.0,0.0,89,0.00,,,0.00,pywws,2013-09-26 06:22:00,
2013-09-26 02:27:00,56.3,53.1,29.98,West,270,0.0,0.0,89,0.00,,,0.00,pywws,2013-09-26 06:27:00,
2013-09-26 02:32:00,56.3,53.1,29.98,East,90,0.0,0.7,89,0.00,,,0.00,pywws,2013-09-26 06:32:00,
2013-09-26 02:37:00,56.5,53.0,29.98,NW,315,0.0,0.0,88,0.00,,,0.00,pywws,2013-09-26 06:37:00,
2013-09-26 02:42:00,56.8,53.3,29.98,South,180,0.7,2.2,88,0.00,,,0.00,pywws,2013-09-26 06:42:00,
2013-09-26 02:47:00,57.0,53.2,29.98,West,270,0.0,0.0,87,0.00,,,0.00,pywws,2013-09-26 06:47:00,
2013-09-26 02:52:00,56.8,52.7,29.98,South,180,0.0,0.0,86,0.00,,,0.00,pywws,2013-09-26 06:52:00,
2013-09-26 02:57:00,56.7,52.5,29.98,East,90,0.0,1.6,86,0.00,,,0.00,pywws,2013-09-26 06:57:00,
2013-09-26 03:02:00,56.1,52.0,29.98,West,270,0.0,0.0,86,0.00,,,0.00,pywws,2013-09-26 07:02:00,
2013-09-26 03:07:00,55.6,51.8,29.98,West,270,0.0,0.0,87,0.00,,,0.00,pywws,2013-09-26 07:07:00,
2013-09-26 03:12:00,55.6,52.1,29.98,North,0,0.0,0.0,88,0.00,,,0.00,pywws,2013-09-26 07:12:00,
2013-09-26 03:18:00,55.2,51.7,29.98,North,0,0.0,0.0,88,0.00,,,0.00,pywws,2013-09-26 07:18:00,
2013-09-26 03:24:00,55.2,52.0,29.98,North,0,0.0,0.0,89,0.00,,,0.00,pywws,2013-09-26 07:24:00,
2013-09-26 03:29:00,54.9,52.0,29.98,North,0,0.0,0.0,90,0.00,,,0.00,pywws,2013-09-26 07:29:00,
2013-09-26 03:35:00,54.3,51.7,29.98,North,0,0.0,0.0,91,0.00,,,0.00,pywws,2013-09-26 07:35:00,
2013-09-26 03:41:00,53.8,51.5,29.98,North,0,0.0,0.0,92,0.00,,,0.00,pywws,2013-09-26 07:41:00,
2013-09-26 03:46:00,53.2,51.3,29.99,North,0,0.0,0.0,93,0.00,,,0.00,pywws,2013-09-26 07:46:00,
2013-09-26 03:52:00,52.9,51.2,29.98,North,0,0.0,0.0,94,0.00,,,0.00,pywws,2013-09-26 07:52:00,
2013-09-26 03:57:00,52.7,51.3,29.98,North,0,0.0,0.0,95,0.00,,,0.00,pywws,2013-09-26 07:57:00,
2013-09-26 04:02:00,52.7,51.3,29.98,South,180,0.0,0.0,95,0.00,,,0.00,pywws,2013-09-26 08:02:00,
2013-09-26 04:07:00,52.7,51.3,29.98,South,180,0.0,0.0,95,0.00,,,0.00,pywws,2013-09-26 08:07:00,
2013-09-26 04:12:00,52.0,51.2,29.98,South,180,0.0,0.0,97,0.00,,,0.00,pywws,2013-09-26 08:12:00,
2013-09-26 04:17:00,51.4,51.2,29.98,South,180,0.0,0.0,99,0.00,,,0.00,pywws,2013-09-26 08:17:00,
2013-09-26 04:22:00,51.4,51.2,29.98,South,180,0.0,0.0,99,0.00,,,0.00,pywws,2013-09-26 08:22:00,
2013-09-26 04:27:00,51.4,51.2,29.98,South,180,0.0,0.0,99,0.00,,,0.00,pywws,2013-09-26 08:27:00,
2013-09-26 04:32:00,51.4,51.2,29.98,South,180,0.0,0.0,99,0.00,,,0.00,pywws,2013-09-26 08:32:00,
2013-09-26 04:37:00,51.3,51.0,29.98,South,180,0.0,0.0,99,0.00,,,0.00,pywws,2013-09-26 08:37:00,
2013-09-26 04:42:00,50.9,50.6,29.99,South,180,0.0,0.0,99,0.00,,,0.00,pywws,2013-09-26 08:42:00,
2013-09-26 04:47:00,50.9,50.6,29.99,South,180,0.0,0.0,99,0.00,,,0.00,pywws,2013-09-26 08:47:00,
2013-09-26 04:52:00,50.5,50.3,29.99,South,180,0.0,0.0,99,0.00,,,0.00,pywws,2013-09-26 08:52:00,
2013-09-26 04:57:00,50.5,50.3,29.99,South,180,0.0,0.0,99,0.00,,,0.00,pywws,2013-09-26 08:57:00,
2013-09-26 05:02:00,50.7,50.4,29.99,South,180,0.0,0.0,99,0.00,,,0.00,pywws,2013-09-26 09:02:00,
2013-09-26 05:07:00,50.5,50.3,29.99,South,180,0.0,0.0,99,0.00,,,0.00,pywws,2013-09-26 09:07:00,
2013-09-26 05:12:00,50.4,50.1,29.99,South,180,0.0,0.0,99,0.00,,,0.00,pywws,2013-09-26 09:12:00,
2013-09-26 05:17:00,50.2,49.9,29.99,South,180,0.0,0.0,99,0.00,,,0.00,pywws,2013-09-26 09:17:00,
2013-09-26 05:22:00,50.2,49.9,30.00,South,180,0.0,0.0,99,0.00,,,0.00,pywws,2013-09-26 09:22:00,
2013-09-26 05:27:00,50.0,49.7,29.99,South,180,0.0,0.0,99,0.00,,,0.00,pywws,2013-09-26 09:27:00,
2013-09-26 05:32:00,49.8,49.5,30.00,NW,315,0.0,0.0,99,0.00,,,0.00,pywws,2013-09-26 09:32:00,
2013-09-26 05:37:00,49.8,49.5,30.00,South,180,0.0,0.0,99,0.00,,,0.00,pywws,2013-09-26 09:37:00,
2013-09-26 05:42:00,49.8,49.5,30.00,South,180,0.0,0.0,99,0.00,,,0.00,pywws,2013-09-26 09:42:00,
2013-09-26 05:47:00,50.2,49.9,30.00,South,180,0.0,1.6,99,0.00,,,0.00,pywws,2013-09-26 09:47:00,
2013-09-26 05:52:00,50.0,49.7,30.00,South,180,0.7,1.6,99,0.00,,,0.00,pywws,2013-09-26 09:52:00,
2013-09-26 05:57:00,49.8,49.5,30.00,South,180,0.0,0.0,99,0.00,,,0.00,pywws,2013-09-26 09:57:00,
2013-09-26 06:02:00,49.6,49.4,30.00,South,180,0.0,0.0,99,0.00,,,0.00,pywws,2013-09-26 10:02:00,
2013-09-26 06:07:00,49.6,49.4,30.01,South,180,0.0,0.0,99,0.00,,,0.00,pywws,2013-09-26 10:07:00,
2013-09-26 06:12:00,49.3,49.0,30.01,South,180,0.0,0.0,99,0.00,,,0.00,pywws,2013-09-26 10:12:00,
2013-09-26 06:17:00,49.1,48.8,30.01,South,180,0.0,0.0,99,0.00,,,0.00,pywws,2013-09-26 10:17:00,
2013-09-26 06:22:00,48.9,48.7,30.01,South,180,0.0,0.0,99,0.00,,,0.00,pywws,2013-09-26 10:22:00,
2013-09-26 06:27:00,48.9,48.7,30.01,NW,315,0.0,0.0,99,0.00,,,0.00,pywws,2013-09-26 10:27:00,
2013-09-26 06:32:00,48.7,48.5,30.01,West,270,0.0,0.0,99,0.00,,,0.00,pywws,2013-09-26 10:32:00,
2013-09-26 06:37:00,48.7,48.5,30.02,West,270,0.0,0.0,99,0.00,,,0.00,pywws,2013-09-26 10:37:00,
2013-09-26 06:42:00,48.7,48.5,30.02,East,90,0.0,0.0,99,0.00,,,0.00,pywws,2013-09-26 10:42:00,
2013-09-26 06:47:00,48.6,48.3,30.02,East,90,0.0,0.0,99,0.00,,,0.00,pywws,2013-09-26 10:47:00,
2013-09-26 06:52:00,48.7,48.5,30.02,East,90,0.0,0.0,99,0.00,,,0.00,pywws,2013-09-26 10:52:00,
2013-09-26 06:57:00,49.1,48.8,30.02,South,180,0.0,0.0,99,0.00,,,0.00,pywws,2013-09-26 10:57:00,
2013-09-26 07:02:00,49.1,48.8,30.03,South,180,0.7,1.6,99,0.00,,,0.00,pywws,2013-09-26 11:02:00,
2013-09-26 07:07:00,48.9,48.7,30.02,South,180,0.0,0.0,99,0.00,,,0.00,pywws,2013-09-26 11:07:00,
2013-09-26 07:12:00,49.1,48.8,30.03,South,180,0.0,0.7,99,0.00,,,0.00,pywws,2013-09-26 11:12:00,
2013-09-26 07:17:00,49.1,48.8,30.03,South,180,0.7,0.7,99,0.00,,,0.00,pywws,2013-09-26 11:17:00,
2013-09-26 07:22:00,49.1,48.8,30.03,South,180,0.0,0.0,99,0.00,,,0.00,pywws,2013-09-26 11:22:00,
2013-09-26 07:27:00,48.9,48.7,30.03,South,180,0.7,1.6,99,0.00,,,0.00,pywws,2013-09-26 11:27:00,
2013-09-26 07:32:00,48.9,48.7,30.03,South,180,0.7,1.6,99,0.00,,,0.00,pywws,2013-09-26 11:32:00,
2013-09-26 07:37:00,49.1,48.8,30.04,South,180,0.7,1.6,99,0.00,,,0.00,pywws,2013-09-26 11:37:00,
2013-09-26 07:42:00,49.1,48.8,30.04,South,180,0.0,0.0,99,0.00,,,0.00,pywws,2013-09-26 11:42:00,
2013-09-26 07:47:00,49.1,48.8,30.04,South,180,0.0,1.6,99,0.00,,,0.00,pywws,2013-09-26 11:47:00,
2013-09-26 07:52:00,49.3,49.0,30.04,South,180,0.7,1.6,99,0.00,,,0.00,pywws,2013-09-26 11:52:00,
2013-09-26 07:57:00,49.3,49.0,30.04,South,180,0.0,0.7,99,0.00,,,0.00,pywws,2013-09-26 11:57:00,
2013-09-26 08:02:00,49.5,49.2,30.04,South,180,0.7,1.6,99,0.00,,,0.00,pywws,2013-09-26 12:02:00,
2013-09-26 08:07:00,49.8,49.5,30.04,South,180,0.7,1.6,99,0.00,,,0.00,pywws,2013-09-26 12:07:00,
2013-09-26 08:12:00,50.2,49.9,30.04,South,180,0.0,0.0,99,0.00,,,0.00,pywws,2013-09-26 12:12:00,
2013-09-26 08:17:00,50.7,50.4,30.04,South,180,0.0,0.0,99,0.00,,,0.00,pywws,2013-09-26 12:17:00,
2013-09-26 08:22:00,51.3,51.0,30.05,South,180,0.0,0.7,99,0.00,,,0.00,pywws,2013-09-26 12:22:00,
2013-09-26 08:27:00,51.8,51.3,30.04,South,180,0.0,0.0,98,0.00,,,0.00,pywws,2013-09-26 12:27:00,
2013-09-26 08:33:00,52.2,51.6,30.05,South,180,0.0,0.0,98,0.00,,,0.00,pywws,2013-09-26 12:33:00,
2013-09-26 08:38:00,53.2,52.7,30.04,South,180,0.0,0.0,98,0.00,,,0.00,pywws,2013-09-26 12:38:00,
2013-09-26 08:44:00,53.8,52.7,30.05,South,180,0.0,0.0,96,0.00,,,0.00,pywws,2013-09-26 12:44:00,
2013-09-26 08:49:00,54.9,53.5,30.04,South,180,0.0,0.0,95,0.00,,,0.00,pywws,2013-09-26 12:49:00,
2013-09-26 08:55:00,58.8,56.8,30.05,South,180,0.0,0.0,93,0.00,,,0.00,pywws,2013-09-26 12:55:00,
2013-09-26 09:01:00,59.0,55.1,30.05,South,180,0.0,0.0,87,0.00,,,0.00,pywws,2013-09-26 13:01:00,
2013-09-26 09:06:00,59.0,54.2,30.05,South,180,0.0,0.0,84,0.00,,,0.00,pywws,2013-09-26 13:06:00,
2013-09-26 09:12:00,59.7,54.2,30.06,South,180,0.0,0.0,82,0.00,,,0.00,pywws,2013-09-26 13:12:00,
2013-09-26 09:17:00,60.1,53.9,30.06,South,180,0.0,0.0,80,0.00,,,0.00,pywws,2013-09-26 13:17:00,
2013-09-26 09:22:00,60.6,53.4,30.06,South,180,0.0,0.0,77,0.00,,,0.00,pywws,2013-09-26 13:22:00,
2013-09-26 09:27:00,61.0,53.7,30.06,South,180,0.7,1.6,77,0.00,,,0.00,pywws,2013-09-26 13:27:00,
2013-09-26 09:32:00,62.2,53.5,30.06,South,180,0.0,0.7,73,0.00,,,0.00,pywws,2013-09-26 13:32:00,
2013-09-26 09:37:00,62.2,53.1,30.07,South,180,0.0,0.0,72,0.00,,,0.00,pywws,2013-09-26 13:37:00,
2013-09-26 09:43:00,62.6,53.4,30.07,North,0,0.0,0.0,72,0.00,,,0.00,pywws,2013-09-26 13:43:00,
2013-09-26 09:49:00,63.0,53.4,30.07,North,0,0.7,1.6,71,0.00,,,0.00,pywws,2013-09-26 13:49:00,
2013-09-26 09:54:00,63.5,53.5,30.07,North,0,0.0,1.6,70,0.00,,,0.00,pywws,2013-09-26 13:54:00,
2013-09-26 10:00:00,63.9,53.5,30.07,West,270,0.0,0.0,69,0.00,,,0.00,pywws,2013-09-26 14:00:00,
2013-09-26 10:05:00,64.0,53.7,30.07,West,270,0.0,0.0,69,0.00,,,0.00,pywws,2013-09-26 14:05:00,
2013-09-26 10:11:00,65.5,54.6,30.08,North,0,0.7,1.6,68,0.00,,,0.00,pywws,2013-09-26 14:11:00,
2013-09-26 10:17:00,65.7,54.4,30.08,NW,315,0.7,1.6,67,0.00,,,0.00,pywws,2013-09-26 14:17:00,
2013-09-26 10:22:00,67.3,55.5,30.08,NW,315,0.7,1.6,66,0.00,,,0.00,pywws,2013-09-26 14:22:00,
2013-09-26 10:27:00,67.5,55.3,30.08,West,270,0.0,0.0,65,0.00,,,0.00,pywws,2013-09-26 14:27:00,
2013-09-26 10:32:00,68.0,54.9,30.08,North,0,0.0,0.7,63,0.00,,,0.00,pywws,2013-09-26 14:32:00,
2013-09-26 10:37:00,69.1,55.5,30.08,North,0,0.7,1.6,62,0.00,,,0.00,pywws,2013-09-26 14:37:00,
2013-09-26 10:42:00,69.3,53.8,30.08,North,0,0.0,1.6,58,0.00,,,0.00,pywws,2013-09-26 14:42:00,
2013-09-26 10:47:00,68.7,53.8,30.08,North,0,0.0,0.0,59,0.00,,,0.00,pywws,2013-09-26 14:47:00,
2013-09-26 10:52:00,68.9,53.5,30.08,North,0,1.6,2.2,58,0.00,,,0.00,pywws,2013-09-26 14:52:00,
2013-09-26 10:57:00,70.2,54.2,30.08,North,0,0.0,0.0,57,0.00,,,0.00,pywws,2013-09-26 14:57:00,
2013-09-26 11:02:00,70.7,53.2,30.08,West,270,0.7,2.2,54,0.00,,,0.00,pywws,2013-09-26 15:02:00,
2013-09-26 11:07:00,69.4,52.6,30.08,NW,315,1.6,3.1,55,0.00,,,0.00,pywws,2013-09-26 15:07:00,
2013-09-26 11:12:00,70.7,53.2,30.09,North,0,0.0,0.7,54,0.00,,,0.00,pywws,2013-09-26 15:12:00,
2013-09-26 11:17:00,70.2,52.7,30.09,East,90,0.7,2.2,54,0.00,,,0.00,pywws,2013-09-26 15:17:00,
2013-09-26 11:22:00,70.2,52.2,30.08,West,270,1.6,2.2,53,0.00,,,0.00,pywws,2013-09-26 15:22:00,
2013-09-26 11:27:00,70.3,51.9,30.09,North,0,1.6,3.1,52,0.00,,,0.00,pywws,2013-09-26 15:27:00,
2013-09-26 11:32:00,70.0,51.5,30.08,North,0,1.6,3.1,52,0.00,,,0.00,pywws,2013-09-26 15:32:00,
2013-09-26 11:37:00,70.5,50.4,30.08,West,270,0.0,0.0,49,0.00,,,0.00,pywws,2013-09-26 15:37:00,
2013-09-26 11:42:00,73.8,52.3,30.09,North,0,0.7,3.1,47,0.00,,,0.00,pywws,2013-09-26 15:42:00,
2013-09-26 11:47:00,72.3,51.5,30.09,North,0,0.7,1.6,48,0.00,,,0.00,pywws,2013-09-26 15:47:00,
2013-09-26 11:52:00,71.6,50.9,30.08,North,0,1.6,2.2,48,0.00,,,0.00,pywws,2013-09-26 15:52:00,
2013-09-26 11:57:00,71.8,49.9,30.09,North,0,2.2,3.8,46,0.00,,,0.00,pywws,2013-09-26 15:57:00,
2013-09-26 12:03:00,71.4,50.1,30.08,North,0,1.6,2.2,47,0.00,,,0.00,pywws,2013-09-26 16:03:00,
2013-09-26 12:09:00,74.8,53.2,30.08,SW,225,1.6,2.2,47,0.00,,,0.00,pywws,2013-09-26 16:09:00,
2013-09-26 12:14:00,71.6,49.7,30.08,North,0,2.2,3.1,46,0.00,,,0.00,pywws,2013-09-26 16:14:00,
2013-09-26 12:20:00,73.2,52.3,30.08,West,270,0.7,3.1,48,0.00,,,0.00,pywws,2013-09-26 16:20:00,
2013-09-26 12:25:00,72.3,51.5,30.08,North,0,1.6,3.1,48,0.00,,,0.00,pywws,2013-09-26 16:25:00,
2013-09-26 12:31:00,73.0,51.6,30.08,North,0,0.0,1.6,47,0.00,,,0.00,pywws,2013-09-26 16:31:00,
2013-09-26 12:37:00,73.0,52.7,30.08,NE,45,0.0,1.6,49,0.00,,,0.00,pywws,2013-09-26 16:37:00,
2013-09-26 12:42:00,73.6,52.7,30.08,West,270,0.0,1.6,48,0.00,,,0.00,pywws,2013-09-26 16:42:00,
2013-09-26 12:47:00,72.0,51.2,30.08,North,0,1.6,3.1,48,0.00,,,0.00,pywws,2013-09-26 16:47:00,
2013-09-26 12:52:00,72.0,51.2,30.08,North,0,2.2,3.1,48,0.00,,,0.00,pywws,2013-09-26 16:52:00,
2013-09-26 12:57:00,72.3,50.9,30.09,North,0,1.6,3.8,47,0.00,,,0.00,pywws,2013-09-26 16:57:00,
2013-09-26 13:02:00,73.0,52.2,30.09,North,0,1.6,2.2,48,0.00,,,0.00,pywws,2013-09-26 17:02:00,
2013-09-26 13:07:00,72.5,51.7,30.08,North,0,1.6,3.1,48,0.00,,,0.00,pywws,2013-09-26 17:07:00,
2013-09-26 13:12:00,71.6,50.3,30.08,North,0,1.6,3.1,47,0.00,,,0.00,pywws,2013-09-26 17:12:00,
2013-09-26 13:17:00,72.1,51.4,30.08,North,0,1.6,3.1,48,0.00,,,0.00,pywws,2013-09-26 17:17:00,
2013-09-26 13:22:00,71.1,50.4,30.08,North,0,1.6,2.2,48,0.00,,,0.00,pywws,2013-09-26 17:22:00,
2013-09-26 13:27:00,72.9,52.6,30.08,North,0,1.6,3.1,49,0.00,,,0.00,pywws,2013-09-26 17:27:00,
2013-09-26 13:32:00,71.6,49.7,30.08,North,0,1.6,3.1,46,0.00,,,0.00,pywws,2013-09-26 17:32:00,
2013-09-26 13:37:00,72.0,50.0,30.08,East,90,1.6,2.2,46,0.00,,,0.00,pywws,2013-09-26 17:37:00,
2013-09-26 13:42:00,71.8,49.3,30.08,West,270,3.1,5.4,45,0.00,,,0.00,pywws,2013-09-26 17:42:00,
2013-09-26 13:47:00,71.2,49.4,30.07,North,0,1.6,2.2,46,0.00,,,0.00,pywws,2013-09-26 17:47:00,
2013-09-26 13:52:00,71.2,48.8,30.07,North,0,0.0,1.6,45,0.00,,,0.00,pywws,2013-09-26 17:52:00,
2013-09-26 13:57:00,72.0,49.4,30.07,West,270,2.2,3.8,45,0.00,,,0.00,pywws,2013-09-26 17:57:00,
2013-09-26 14:02:00,71.1,49.2,30.07,South,180,0.7,1.6,46,0.00,,,0.00,pywws,2013-09-26 18:02:00,
2013-09-26 14:07:00,71.4,48.4,30.07,North,0,1.6,2.2,44,0.00,,,0.00,pywws,2013-09-26 18:07:00,
2013-09-26 14:12:00,72.1,49.0,30.06,North,0,0.7,1.6,44,0.00,,,0.00,pywws,2013-09-26 18:12:00,
2013-09-26 14:17:00,72.5,49.3,30.06,North,0,1.6,3.8,44,0.00,,,0.00,pywws,2013-09-26 18:17:00,
2013-09-26 14:22:00,72.7,47.6,30.06,SE,135,2.2,3.1,41,0.00,,,0.00,pywws,2013-09-26 18:22:00,
2013-09-26 14:27:00,71.4,47.1,30.06,North,0,2.2,3.8,42,0.00,,,0.00,pywws,2013-09-26 18:27:00,
2013-09-26 14:32:00,72.5,49.9,30.07,North,0,2.2,3.1,45,0.00,,,0.00,pywws,2013-09-26 18:32:00,
2013-09-26 14:37:00,71.8,48.1,30.07,North,0,3.1,3.8,43,0.00,,,0.00,pywws,2013-09-26 18:37:00,
2013-09-26 14:42:00,71.8,48.7,30.07,West,270,3.1,3.8,44,0.00,,,0.00,pywws,2013-09-26 18:42:00,
2013-09-26 14:47:00,72.0,50.0,30.07,North,0,0.7,3.1,46,0.00,,,0.00,pywws,2013-09-26 18:47:00,
2013-09-26 14:52:00,71.4,50.7,30.07,East,90,2.2,3.8,48,0.00,,,0.00,pywws,2013-09-26 18:52:00,
2013-09-26 14:57:00,72.0,52.8,30.07,North,0,1.6,2.2,51,0.00,,,0.00,pywws,2013-09-26 18:57:00,
2013-09-26 15:02:00,71.1,49.8,30.07,East,90,1.6,3.1,47,0.00,,,0.00,pywws,2013-09-26 19:02:00,
2013-09-26 15:07:00,71.6,51.4,30.07,NW,315,1.6,2.2,49,0.00,,,0.00,pywws,2013-09-26 19:07:00,
2013-09-26 15:12:00,71.4,52.9,30.07,North,0,2.2,3.8,52,0.00,,,0.00,pywws,2013-09-26 19:12:00,
2013-09-26 15:17:00,70.7,51.7,30.07,NE,45,1.6,3.1,51,0.00,,,0.00,pywws,2013-09-26 19:17:00,
2013-09-26 15:22:00,70.7,52.2,30.07,North,0,1.6,3.1,52,0.00,,,0.00,pywws,2013-09-26 19:22:00,
2013-09-26 15:27:00,71.2,52.7,30.07,North,0,2.2,3.8,52,0.00,,,0.00,pywws,2013-09-26 19:27:00,
2013-09-26 15:32:00,70.9,51.8,30.07,NE,45,0.7,3.1,51,0.00,,,0.00,pywws,2013-09-26 19:32:00,
2013-09-26 15:37:00,70.9,51.3,30.08,North,0,3.1,4.5,50,0.00,,,0.00,pywws,2013-09-26 19:37:00,
2013-09-26 15:42:00,70.9,51.3,30.07,North,0,2.2,4.5,50,0.00,,,0.00,pywws,2013-09-26 19:42:00,
2013-09-26 15:47:00,71.2,52.2,30.07,North,0,2.2,4.5,51,0.00,,,0.00,pywws,2013-09-26 19:47:00,
2013-09-26 15:52:00,70.3,50.8,30.07,North,0,3.1,4.5,50,0.00,,,0.00,pywws,2013-09-26 19:52:00,
2013-09-26 15:57:00,71.1,52.0,30.08,North,0,3.1,3.8,51,0.00,,,0.00,pywws,2013-09-26 19:57:00,
2013-09-26 16:02:00,71.1,52.5,30.08,North,0,1.6,3.1,52,0.00,,,0.00,pywws,2013-09-26 20:02:00,
2013-09-26 16:07:00,71.1,49.8,30.08,North,0,2.2,3.8,47,0.00,,,0.00,pywws,2013-09-26 20:07:00,
2013-09-26 16:12:00,71.1,48.6,30.08,NE,45,2.2,4.5,45,0.00,,,0.00,pywws,2013-09-26 20:12:00,
2013-09-26 16:17:00,71.1,48.0,30.07,North,0,1.6,3.1,44,0.00,,,0.00,pywws,2013-09-26 20:17:00,
2013-09-26 16:22:00,70.5,47.5,30.08,East,90,2.2,3.1,44,0.00,,,0.00,pywws,2013-09-26 20:22:00,
2013-09-26 16:27:00,70.7,46.5,30.07,North,0,1.6,3.1,42,0.00,,,0.00,pywws,2013-09-26 20:27:00,
2013-09-26 16:32:00,71.1,47.4,30.08,North,0,2.2,4.5,43,0.00,,,0.00,pywws,2013-09-26 20:32:00,
2013-09-26 16:37:00,70.5,46.3,30.08,East,90,1.6,3.1,42,0.00,,,0.00,pywws,2013-09-26 20:37:00,
2013-09-26 16:42:00,71.2,47.6,30.08,North,0,0.7,2.2,43,0.00,,,0.00,pywws,2013-09-26 20:42:00,
2013-09-26 16:47:00,70.5,47.5,30.08,North,0,3.1,3.8,44,0.00,,,0.00,pywws,2013-09-26 20:47:00,
2013-09-26 16:52:00,69.8,47.5,30.08,NE,45,1.6,5.4,45,0.00,,,0.00,pywws,2013-09-26 20:52:00,
2013-09-26 16:57:00,69.8,47.5,30.08,North,0,2.2,3.8,45,0.00,,,0.00,pywws,2013-09-26 20:57:00,
2013-09-26 17:02:00,70.5,48.1,30.08,North,0,0.7,2.2,45,0.00,,,0.00,pywws,2013-09-26 21:02:00,
2013-09-26 17:07:00,70.3,47.4,30.09,North,0,4.5,6.0,44,0.00,,,0.00,pywws,2013-09-26 21:07:00,
2013-09-26 17:13:00,69.3,46.4,30.09,North,0,4.5,6.9,44,0.00,,,0.00,pywws,2013-09-26 21:13:00,
2013-09-26 17:18:00,69.6,46.7,30.09,North,0,1.6,2.2,44,0.00,,,0.00,pywws,2013-09-26 21:18:00,
2013-09-26 17:23:00,69.8,45.7,30.09,North,0,2.2,3.1,42,0.00,,,0.00,pywws,2013-09-26 21:23:00,
2013-09-26 17:29:00,69.6,46.1,30.09,North,0,0.0,0.7,43,0.00,,,0.00,pywws,2013-09-26 21:29:00,
2013-09-26 17:34:00,69.6,47.3,30.09,North,0,0.0,0.7,45,0.00,,,0.00,pywws,2013-09-26 21:34:00,
2013-09-26 17:40:00,69.1,48.0,30.09,North,0,0.0,0.7,47,0.00,,,0.00,pywws,2013-09-26 21:40:00,
2013-09-26 17:45:00,69.1,48.0,30.09,East,90,0.7,1.6,47,0.00,,,0.00,pywws,2013-09-26 21:45:00,
2013-09-26 17:51:00,68.9,46.7,30.09,East,90,0.0,0.0,45,0.00,,,0.00,pywws,2013-09-26 21:51:00,
2013-09-26 17:57:00,68.4,47.3,30.09,North,0,1.6,3.8,47,0.00,,,0.00,pywws,2013-09-26 21:57:00,
2013-09-26 18:02:00,68.2,46.6,30.09,North,0,0.7,1.6,46,0.00,,,0.00,pywws,2013-09-26 22:02:00,
2013-09-26 18:07:00,68.0,47.6,30.09,North,0,2.2,3.8,48,0.00,,,0.00,pywws,2013-09-26 22:07:00,
2013-09-26 18:12:00,68.0,47.6,30.10,North,0,0.7,1.6,48,0.00,,,0.00,pywws,2013-09-26 22:12:00,
2013-09-26 18:17:00,67.6,48.9,30.10,North,0,0.0,0.7,51,0.00,,,0.00,pywws,2013-09-26 22:17:00,
2013-09-26 18:22:00,67.3,48.0,30.10,North,0,0.7,1.6,50,0.00,,,0.00,pywws,2013-09-26 22:22:00,
2013-09-26 18:27:00,67.1,48.9,30.10,North,0,0.0,0.7,52,0.00,,,0.00,pywws,2013-09-26 22:27:00,
2013-09-26 18:32:00,66.9,47.1,30.10,North,0,0.7,1.6,49,0.00,,,0.00,pywws,2013-09-26 22:32:00,
2013-09-26 18:37:00,66.7,46.4,30.10,North,0,0.7,2.2,48,0.00,,,0.00,pywws,2013-09-26 22:37:00,
2013-09-26 18:42:00,66.4,46.6,30.10,North,0,0.0,0.0,49,0.00,,,0.00,pywws,2013-09-26 22:42:00,
2013-09-26 18:47:00,65.7,47.5,30.10,SE,135,1.6,3.1,52,0.00,,,0.00,pywws,2013-09-26 22:47:00,
2013-09-26 18:52:00,65.5,47.4,30.10,North,0,0.0,0.0,52,0.00,,,0.00,pywws,2013-09-26 22:52:00,
2013-09-26 18:57:00,64.9,47.9,30.10,NW,315,0.0,0.0,54,0.00,,,0.00,pywws,2013-09-26 22:57:00,
2013-09-26 19:02:00,64.4,47.9,30.11,North,0,0.0,0.0,55,0.00,,,0.00,pywws,2013-09-26 23:02:00,
2013-09-26 19:07:00,63.7,47.2,30.11,East,90,0.0,0.0,55,0.00,,,0.00,pywws,2013-09-26 23:07:00,
2013-09-26 19:12:00,63.5,47.0,30.11,North,0,0.0,0.0,55,0.00,,,0.00,pywws,2013-09-26 23:12:00,
2013-09-26 19:17:00,63.5,46.6,30.11,NE,45,0.0,0.0,54,0.00,,,0.00,pywws,2013-09-26 23:17:00,
2013-09-26 19:22:00,63.3,46.4,30.10,SE,135,0.7,2.2,54,0.00,,,0.00,pywws,2013-09-26 23:22:00,
2013-09-26 19:27:00,63.1,46.2,30.10,North,0,0.0,0.0,54,0.00,,,0.00,pywws,2013-09-26 23:27:00,
2013-09-26 19:32:00,62.8,45.9,30.10,North,0,0.0,0.0,54,0.00,,,0.00,pywws,2013-09-26 23:32:00,
2013-09-26 19:37:00,62.1,46.6,30.10,East,90,0.0,0.0,57,0.00,,,0.00,pywws,2013-09-26 23:37:00,
2013-09-26 19:42:00,61.7,46.3,30.10,West,270,0.0,0.0,57,0.00,,,0.00,pywws,2013-09-26 23:42:00,
2013-09-26 19:47:00,61.5,47.1,30.10,North,0,0.0,0.0,59,0.00,,,0.00,pywws,2013-09-26 23:47:00,
2013-09-26 19:52:00,61.2,46.7,30.10,South,180,0.7,1.6,59,0.00,,,0.00,pywws,2013-09-26 23:52:00,
2013-09-26 19:57:00,61.2,47.2,30.10,West,270,0.0,0.0,60,0.00,,,0.00,pywws,2013-09-26 23:57:00,
2013-09-26 20:02:00,61.0,47.4,30.10,North,0,0.0,0.0,61,0.00,,,0.00,pywws,2013-09-27 00:02:00,
2013-09-26 20:07:00,61.0,47.4,30.10,North,0,0.0,0.0,61,0.00,,,0.00,pywws,2013-09-27 00:07:00,
2013-09-26 20:12:00,60.8,47.7,30.11,North,0,0.0,0.0,62,0.00,,,0.00,pywws,2013-09-27 00:12:00,
2013-09-26 20:17:00,60.4,47.8,30.10,North,0,0.0,0.7,63,0.00,,,0.00,pywws,2013-09-27 00:17:00,
2013-09-26 20:23:00,60.8,48.1,30.10,SE,135,0.0,1.6,63,0.00,,,0.00,pywws,2013-09-27 00:23:00,
2013-09-26 20:29:00,61.2,48.5,30.10,North,0,0.0,0.0,63,0.00,,,0.00,pywws,2013-09-27 00:29:00,
2013-09-26 20:34:00,60.6,48.8,30.11,East,90,0.0,0.0,65,0.00,,,0.00,pywws,2013-09-27 00:34:00,
2013-09-26 20:40:00,61.0,49.1,30.11,NE,45,0.0,0.0,65,0.00,,,0.00,pywws,2013-09-27 00:40:00,
2013-09-26 20:45:00,60.8,49.0,30.11,North,0,0.0,0.0,65,0.00,,,0.00,pywws,2013-09-27 00:45:00,
2013-09-26 20:51:00,60.6,49.6,30.11,East,90,0.0,0.0,67,0.00,,,0.00,pywws,2013-09-27 00:51:00,
2013-09-26 20:57:00,60.3,49.7,30.11,North,0,0.0,0.0,68,0.00,,,0.00,pywws,2013-09-27 00:57:00,
2013-09-26 21:02:00,60.1,49.5,30.11,West,270,0.0,0.0,68,0.00,,,0.00,pywws,2013-09-27 01:02:00,
2013-09-26 21:07:00,59.9,49.7,30.11,SE,135,0.7,1.6,69,0.00,,,0.00,pywws,2013-09-27 01:07:00,
2013-09-26 21:12:00,60.1,50.3,30.11,North,0,0.7,3.1,70,0.00,,,0.00,pywws,2013-09-27 01:12:00,
2013-09-26 21:17:00,59.9,50.1,30.11,North,0,0.0,1.6,70,0.00,,,0.00,pywws,2013-09-27 01:17:00,
2013-09-26 21:22:00,59.7,49.9,30.12,West,270,0.0,0.7,70,0.00,,,0.00,pywws,2013-09-27 01:22:00,
2013-09-26 21:27:00,59.7,50.3,30.12,North,0,0.0,1.6,71,0.00,,,0.00,pywws,2013-09-27 01:27:00,
2013-09-26 21:32:00,59.5,50.5,30.13,North,0,0.0,0.0,72,0.00,,,0.00,pywws,2013-09-27 01:32:00,
2013-09-26 21:37:00,59.0,50.4,30.13,North,0,0.0,0.0,73,0.00,,,0.00,pywws,2013-09-27 01:37:00,
2013-09-26 21:42:00,58.6,50.7,30.13,North,0,0.0,0.0,75,0.00,,,0.00,pywws,2013-09-27 01:42:00,
2013-09-26 21:47:00,58.3,50.4,30.13,North,0,0.0,0.0,75,0.00,,,0.00,pywws,2013-09-27 01:47:00,
2013-09-26 21:52:00,58.1,50.6,30.13,North,0,0.0,0.0,76,0.00,,,0.00,pywws,2013-09-27 01:52:00,
2013-09-26 21:57:00,58.1,50.6,30.14,North,0,0.0,0.0,76,0.00,,,0.00,pywws,2013-09-27 01:57:00,
2013-09-26 22:02:00,57.7,50.6,30.13,North,0,0.0,0.0,77,0.00,,,0.00,pywws,2013-09-27 02:02:00,
2013-09-26 22:07:00,57.7,50.6,30.14,North,0,0.0,0.0,77,0.00,,,0.00,pywws,2013-09-27 02:07:00,
2013-09-26 22:12:00,57.9,51.1,30.14,North,0,0.0,0.0,78,0.00,,,0.00,pywws,2013-09-27 02:12:00,
2013-09-26 22:17:00,57.4,50.6,30.14,North,0,0.0,0.0,78,0.00,,,0.00,pywws,2013-09-27 02:17:00,
2013-09-26 22:22:00,57.6,50.8,30.14,North,0,0.0,0.0,78,0.00,,,0.00,pywws,2013-09-27 02:22:00,
2013-09-26 22:27:00,57.7,50.9,30.14,North,0,0.0,0.0,78,0.00,,,0.00,pywws,2013-09-27 02:27:00,
2013-09-26 22:32:00,57.7,50.9,30.14,North,0,0.0,0.0,78,0.00,,,0.00,pywws,2013-09-27 02:32:00,
2013-09-26 22:37:00,57.2,50.4,30.14,North,0,0.0,0.0,78,0.00,,,0.00,pywws,2013-09-27 02:37:00,
2013-09-26 22:43:00,57.0,50.9,30.14,North,0,0.0,0.0,80,0.00,,,0.00,pywws,2013-09-27 02:43:00,
2013-09-26 22:49:00,56.8,51.1,30.14,North,0,0.0,0.0,81,0.00,,,0.00,pywws,2013-09-27 02:49:00,
2013-09-26 22:54:00,56.8,51.1,30.14,North,0,0.0,0.0,81,0.00,,,0.00,pywws,2013-09-27 02:54:00,
2013-09-26 23:00:00,57.2,51.1,30.14,North,0,0.0,0.0,80,0.00,,,0.00,pywws,2013-09-27 03:00:00,
2013-09-26 23:05:00,57.7,51.3,30.13,East,90,0.0,0.0,79,0.00,,,0.00,pywws,2013-09-27 03:05:00,
2013-09-26 23:11:00,57.7,51.3,30.14,North,0,0.0,0.0,79,0.00,,,0.00,pywws,2013-09-27 03:11:00,
2013-09-26 23:17:00,57.9,51.4,30.13,East,90,0.0,0.0,79,0.00,,,0.00,pywws,2013-09-27 03:17:00,
2013-09-26 23:22:00,58.3,52.1,30.13,North,0,0.0,0.0,80,0.00,,,0.00,pywws,2013-09-27 03:22:00,
2013-09-26 23:27:00,58.6,52.5,30.13,South,180,0.0,1.6,80,0.00,,,0.00,pywws,2013-09-27 03:27:00,
2013-09-26 23:32:00,58.6,52.5,30.13,East,90,0.0,1.6,80,0.00,,,0.00,pywws,2013-09-27 03:32:00,
2013-09-26 23:37:00,58.3,52.5,30.13,South,180,0.0,0.0,81,0.00,,,0.00,pywws,2013-09-27 03:37:00,
2013-09-26 23:42:00,58.3,52.8,30.13,West,270,0.0,0.7,82,0.00,,,0.00,pywws,2013-09-27 03:42:00,
2013-09-26 23:47:00,58.6,53.2,30.13,SE,135,0.0,0.7,82,0.00,,,0.00,pywws,2013-09-27 03:47:00,
2013-09-26 23:52:00,58.5,53.3,30.13,North,0,0.0,0.0,83,0.00,,,0.00,pywws,2013-09-27 03:52:00,
2013-09-26 23:57:00,58.3,53.5,30.13,North,0,0.0,0.0,84,0.00,,,0.00,pywws,2013-09-27 03:57:00,